sensor_id;sensor_type;location;lat;lon;timestamp;pressure;altitude;pressure_sealevel;temperature;humidity
68994;BME280;56054;50.968;5.816;2023-01-13T00:00:10;99769.59;;;10.07;100.00
68994;BME280;56054;50.968;5.816;2023-01-13T00:03:18;99761.16;;;10.11;100.00
68994;BME280;56054;50.968;5.816;2023-01-13T00:06:25;99765.47;;;10.11;100.00
68994;BME280;56054;50.968;5.816;2023-01-13T00:09:33;99762.97;;;10.12;100.00
68994;BME280;56054;50.968;5.816;2023-01-13T00:12:41;99757.78;;;10.12;100.00
68994;BME280;56054;50.968;5.816;2023-01-13T00:16:01;99764.59;;;10.10;100.00
68994;BME280;56054;50.968;5.816;2023-01-13T00:19:08;99756.19;;;10.16;100.00
68994;BME280;56054;50.968;5.816;2023-01-13T00:22:15;99761.16;;;10.11;100.00
68994;BME280;56054;50.968;5.816;2023-01-13T00:25:29;99764.59;;;10.10;100.00
68994;BME280;56054;50.968;5.816;2023-01-13T00:28:36;99756.81;;;10.10;100.00
68994;BME280;56054;50.968;5.816;2023-01-13T00:31:43;99773.91;;;10.06;100.00
68994;BME280;56054;50.968;5.816;2023-01-13T00:34:51;99769.53;;;10.05;100.00
68994;BME280;56054;50.968;5.816;2023-01-13T00:37:58;99751.28;;;10.04;100.00
68994;BME280;56054;50.968;5.816;2023-01-13T00:41:07;99731.22;;;10.00;100.00
68994;BME280;56054;50.968;5.816;2023-01-13T00:44:15;99748.69;;;10.04;100.00
68994;BME280;56054;50.968;5.816;2023-01-13T00:47:22;99779.97;;;10.07;100.00
68994;BME280;56054;50.968;5.816;2023-01-13T00:50:29;99760.19;;;10.09;100.00
68994;BME280;56054;50.968;5.816;2023-01-13T00:53:38;99765.97;;;10.03;100.00
68994;BME280;56054;50.968;5.816;2023-01-13T00:56:46;99728.03;;;10.05;100.00
68994;BME280;56054;50.968;5.816;2023-01-13T00:59:53;99727.28;;;10.08;100.00
68994;BME280;56054;50.968;5.816;2023-01-13T01:03:01;99724.47;;;10.03;100.00
68994;BME280;56054;50.968;5.816;2023-01-13T01:06:17;99700.22;;;10.03;100.00
68994;BME280;56054;50.968;5.816;2023-01-13T01:09:24;99716.22;;;9.94;99.89
68994;BME280;56054;50.968;5.816;2023-01-13T01:12:33;99715.03;;;9.88;99.39
68994;BME280;56054;50.968;5.816;2023-01-13T01:15:42;99719.78;;;9.78;91.32
68994;BME280;56054;50.968;5.816;2023-01-13T01:18:51;99726.00;;;9.82;87.21
68994;BME280;56054;50.968;5.816;2023-01-13T01:21:58;99741.03;;;9.71;86.06
68994;BME280;56054;50.968;5.816;2023-01-13T01:25:06;99741.81;;;9.70;82.85
68994;BME280;56054;50.968;5.816;2023-01-13T01:28:14;99742.03;;;9.57;83.66
68994;BME280;56054;50.968;5.816;2023-01-13T01:31:29;99732.44;;;9.56;84.10
68994;BME280;56054;50.968;5.816;2023-01-13T01:34:36;99752.41;;;9.40;85.79
68994;BME280;56054;50.968;5.816;2023-01-13T01:37:43;99754.75;;;9.36;85.63
68994;BME280;56054;50.968;5.816;2023-01-13T01:40:53;99759.25;;;9.22;88.06
68994;BME280;56054;50.968;5.816;2023-01-13T01:47:59;99767.50;;;9.15;90.86
68994;BME280;56054;50.968;5.816;2023-01-13T01:51:10;99775.28;;;9.15;90.32
68994;BME280;56054;50.968;5.816;2023-01-13T01:54:25;99767.16;;;9.09;92.53
68994;BME280;56054;50.968;5.816;2023-01-13T01:57:46;99759.81;;;9.00;92.13
68994;BME280;56054;50.968;5.816;2023-01-13T02:00:55;99778.41;;;8.93;92.81
68994;BME280;56054;50.968;5.816;2023-01-13T02:04:09;99773.97;;;8.90;93.21
68994;BME280;56054;50.968;5.816;2023-01-13T02:07:20;99776.03;;;8.81;92.78
68994;BME280;56054;50.968;5.816;2023-01-13T02:10:29;99767.28;;;8.79;92.84
68994;BME280;56054;50.968;5.816;2023-01-13T02:13:36;99763.72;;;8.77;92.61
68994;BME280;56054;50.968;5.816;2023-01-13T02:27:30;99750.50;;;8.56;96.42
68994;BME280;56054;50.968;5.816;2023-01-13T02:30:54;99751.50;;;8.43;97.11
68994;BME280;56054;50.968;5.816;2023-01-13T02:34:19;99757.66;;;8.45;97.57
68994;BME280;56054;50.968;5.816;2023-01-13T02:37:32;99753.94;;;8.40;97.54
68994;BME280;56054;50.968;5.816;2023-01-13T02:40:49;99738.75;;;8.46;96.65
68994;BME280;56054;50.968;5.816;2023-01-13T02:44:01;99751.34;;;8.40;96.98
68994;BME280;56054;50.968;5.816;2023-01-13T02:47:19;99741.78;;;8.39;97.15
68994;BME280;56054;50.968;5.816;2023-01-13T02:50:39;99742.41;;;8.35;97.63
68994;BME280;56054;50.968;5.816;2023-01-13T02:53:58;99732.78;;;8.32;97.75
68994;BME280;56054;50.968;5.816;2023-01-13T02:57:07;99738.41;;;8.25;98.08
68994;BME280;56054;50.968;5.816;2023-01-13T03:00:16;99755.63;;;8.25;97.81
68994;BME280;56054;50.968;5.816;2023-01-13T03:03:24;99745.34;;;8.26;97.44
68994;BME280;56054;50.968;5.816;2023-01-13T03:06:47;99738.25;;;8.22;97.50
68994;BME280;56054;50.968;5.816;2023-01-13T03:10:09;99748.59;;;8.22;98.40
68994;BME280;56054;50.968;5.816;2023-01-13T03:17:30;99748.38;;;8.19;98.56
68994;BME280;56054;50.968;5.816;2023-01-13T03:20:29;99735.22;;;8.14;98.87
68994;BME280;56054;50.968;5.816;2023-01-13T03:23:51;99742.00;;;8.12;99.04
68994;BME280;56054;50.968;5.816;2023-01-13T03:27:07;99741.19;;;8.13;99.05
68994;BME280;56054;50.968;5.816;2023-01-13T03:30:43;99735.84;;;8.10;99.01
68994;BME280;56054;50.968;5.816;2023-01-13T03:33:57;99726.47;;;8.12;98.92
68994;BME280;56054;50.968;5.816;2023-01-13T03:37:07;99723.97;;;8.14;98.61
68994;BME280;56054;50.968;5.816;2023-01-13T03:40:17;99741.09;;;8.12;99.19
68994;BME280;56054;50.968;5.816;2023-01-13T03:43:31;99748.78;;;8.10;99.07
68994;BME280;56054;50.968;5.816;2023-01-13T03:46:46;99740.19;;;8.11;99.16
68994;BME280;56054;50.968;5.816;2023-01-13T03:50:16;99742.78;;;8.11;99.80
68994;BME280;56054;50.968;5.816;2023-01-13T03:53:35;99746.19;;;8.10;99.96
68994;BME280;56054;50.968;5.816;2023-01-13T03:56:47;99753.78;;;8.07;99.76
68994;BME280;56054;50.968;5.816;2023-01-13T03:59:59;99745.22;;;8.08;99.45
68994;BME280;56054;50.968;5.816;2023-01-13T04:03:20;99740.75;;;8.06;100.00
68994;BME280;56054;50.968;5.816;2023-01-13T04:06:41;99729.78;;;8.10;98.91
68994;BME280;56054;50.968;5.816;2023-01-13T04:09:56;99747.91;;;8.10;98.95
68994;BME280;56054;50.968;5.816;2023-01-13T04:13:07;99738.44;;;8.10;99.28
68994;BME280;56054;50.968;5.816;2023-01-13T04:16:16;99730.66;;;8.10;99.15
68994;BME280;56054;50.968;5.816;2023-01-13T04:19:23;99730.06;;;8.14;98.18
68994;BME280;56054;50.968;5.816;2023-01-13T04:22:30;99754.38;;;8.18;98.71
68994;BME280;56054;50.968;5.816;2023-01-13T04:25:37;99740.56;;;8.18;98.79
68994;BME280;56054;50.968;5.816;2023-01-13T04:28:45;99754.47;;;8.20;99.16
68994;BME280;56054;50.968;5.816;2023-01-13T04:31:52;99758.56;;;8.16;100.00
68994;BME280;56054;50.968;5.816;2023-01-13T04:34:59;99752.34;;;8.12;100.00
68994;BME280;56054;50.968;5.816;2023-01-13T04:38:09;99752.00;;;8.06;100.00
68994;BME280;56054;50.968;5.816;2023-01-13T04:41:16;99757.00;;;8.03;100.00
68994;BME280;56054;50.968;5.816;2023-01-13T04:44:24;99740.38;;;8.00;99.70
68994;BME280;56054;50.968;5.816;2023-01-13T04:47:31;99738.97;;;7.90;100.00
68994;BME280;56054;50.968;5.816;2023-01-13T04:50:42;99740.94;;;7.94;100.00
68994;BME280;56054;50.968;5.816;2023-01-13T04:53:49;99738.44;;;7.96;100.00
68994;BME280;56054;50.968;5.816;2023-01-13T04:56:56;99716.88;;;7.95;100.00
68994;BME280;56054;50.968;5.816;2023-01-13T05:00:05;99723.66;;;7.93;100.00
68994;BME280;56054;50.968;5.816;2023-01-13T05:03:12;99718.91;;;8.01;99.88
68994;BME280;56054;50.968;5.816;2023-01-13T05:06:19;99719.25;;;8.07;100.00
68994;BME280;56054;50.968;5.816;2023-01-13T05:09:26;99708.00;;;8.06;99.61
68994;BME280;56054;50.968;5.816;2023-01-13T05:12:33;99728.16;;;8.12;99.34
68994;BME280;56054;50.968;5.816;2023-01-13T05:15:40;99728.41;;;8.17;99.34
68994;BME280;56054;50.968;5.816;2023-01-13T05:18:47;99746.44;;;8.30;98.61
68994;BME280;56054;50.968;5.816;2023-01-13T05:21:54;99752.50;;;8.30;97.92
68994;BME280;56054;50.968;5.816;2023-01-13T05:25:09;99763.47;;;8.41;97.22
68994;BME280;56054;50.968;5.816;2023-01-13T05:28:17;99768.84;;;8.44;97.63
68994;BME280;56054;50.968;5.816;2023-01-13T05:31:24;99772.31;;;8.45;98.43
68994;BME280;56054;50.968;5.816;2023-01-13T05:34:31;99755.06;;;8.45;98.03
68994;BME280;56054;50.968;5.816;2023-01-13T05:37:38;99756.69;;;8.43;97.40
68994;BME280;56054;50.968;5.816;2023-01-13T05:40:45;99762.94;;;8.47;97.78
68994;BME280;56054;50.968;5.816;2023-01-13T05:43:52;99769.97;;;8.49;98.78
68994;BME280;56054;50.968;5.816;2023-01-13T05:46:59;99765.78;;;8.51;99.75
68994;BME280;56054;50.968;5.816;2023-01-13T05:50:07;99763.53;;;8.57;98.68
68994;BME280;56054;50.968;5.816;2023-01-13T05:53:16;99764.19;;;8.53;99.77
68994;BME280;56054;50.968;5.816;2023-01-13T05:56:23;99769.16;;;8.50;99.42
68994;BME280;56054;50.968;5.816;2023-01-13T05:59:32;99772.06;;;8.40;99.06
68994;BME280;56054;50.968;5.816;2023-01-13T06:02:38;99766.75;;;8.39;97.89
68994;BME280;56054;50.968;5.816;2023-01-13T06:05:52;99764.97;;;8.38;97.69
68994;BME280;56054;50.968;5.816;2023-01-13T06:08:59;99768.28;;;8.50;96.24
68994;BME280;56054;50.968;5.816;2023-01-13T06:12:10;99764.88;;;8.36;97.32
68994;BME280;56054;50.968;5.816;2023-01-13T06:15:18;99782.75;;;8.46;95.24
68994;BME280;56054;50.968;5.816;2023-01-13T06:18:27;99797.13;;;8.41;95.93
68994;BME280;56054;50.968;5.816;2023-01-13T06:21:34;99814.50;;;8.29;95.34
68994;BME280;56054;50.968;5.816;2023-01-13T06:24:49;99812.84;;;8.29;94.41
68994;BME280;56054;50.968;5.816;2023-01-13T06:27:58;99796.31;;;8.27;95.32
68994;BME280;56054;50.968;5.816;2023-01-13T06:31:07;99805.69;;;8.25;95.07
68994;BME280;56054;50.968;5.816;2023-01-13T06:34:16;99817.47;;;8.20;95.45
68994;BME280;56054;50.968;5.816;2023-01-13T06:37:23;99826.56;;;8.13;95.70
68994;BME280;56054;50.968;5.816;2023-01-13T06:40:31;99822.22;;;8.12;95.35
68994;BME280;56054;50.968;5.816;2023-01-13T06:43:38;99829.88;;;8.11;96.16
68994;BME280;56054;50.968;5.816;2023-01-13T06:46:46;99819.78;;;8.01;96.47
68994;BME280;56054;50.968;5.816;2023-01-13T06:49:53;99816.94;;;7.96;97.52
68994;BME280;56054;50.968;5.816;2023-01-13T06:53:02;99820.50;;;7.98;98.15
68994;BME280;56054;50.968;5.816;2023-01-13T06:56:09;99817.66;;;7.93;99.11
68994;BME280;56054;50.968;5.816;2023-01-13T06:59:16;99823.38;;;7.88;99.29
68994;BME280;56054;50.968;5.816;2023-01-13T07:02:23;99820.56;;;7.85;99.05
68994;BME280;56054;50.968;5.816;2023-01-13T07:05:31;99822.44;;;7.72;99.25
68994;BME280;56054;50.968;5.816;2023-01-13T07:08:38;99839.38;;;7.67;99.42
68994;BME280;56054;50.968;5.816;2023-01-13T07:11:46;99841.50;;;7.60;100.00
68994;BME280;56054;50.968;5.816;2023-01-13T07:14:53;99822.13;;;7.53;100.00
68994;BME280;56054;50.968;5.816;2023-01-13T07:18:02;99835.75;;;7.50;100.00
68994;BME280;56054;50.968;5.816;2023-01-13T07:21:10;99835.47;;;7.46;100.00
68994;BME280;56054;50.968;5.816;2023-01-13T07:24:18;99839.88;;;7.47;100.00
68994;BME280;56054;50.968;5.816;2023-01-13T07:27:26;99836.09;;;7.42;100.00
68994;BME280;56054;50.968;5.816;2023-01-13T07:30:33;99847.88;;;7.37;100.00
68994;BME280;56054;50.968;5.816;2023-01-13T07:33:42;99851.34;;;7.37;100.00
68994;BME280;56054;50.968;5.816;2023-01-13T07:36:48;99845.34;;;7.38;100.00
68994;BME280;56054;50.968;5.816;2023-01-13T07:39:56;99848.41;;;7.46;100.00
68994;BME280;56054;50.968;5.816;2023-01-13T07:43:03;99846.34;;;7.40;100.00
68994;BME280;56054;50.968;5.816;2023-01-13T07:46:11;99842.88;;;7.40;100.00
68994;BME280;56054;50.968;5.816;2023-01-13T07:49:18;99853.63;;;7.33;100.00
68994;BME280;56054;50.968;5.816;2023-01-13T07:52:26;99851.03;;;7.33;100.00
68994;BME280;56054;50.968;5.816;2023-01-13T07:55:33;99867.72;;;7.38;100.00
68994;BME280;56054;50.968;5.816;2023-01-13T07:58:42;99877.34;;;7.40;100.00
68994;BME280;56054;50.968;5.816;2023-01-13T08:01:55;99868.91;;;7.43;100.00
68994;BME280;56054;50.968;5.816;2023-01-13T08:05:22;99890.69;;;7.46;100.00
68994;BME280;56054;50.968;5.816;2023-01-13T08:08:28;99881.22;;;7.47;100.00
68994;BME280;56054;50.968;5.816;2023-01-13T08:11:37;99902.25;;;7.53;100.00
68994;BME280;56054;50.968;5.816;2023-01-13T08:14:43;99897.66;;;7.62;100.00
68994;BME280;56054;50.968;5.816;2023-01-13T08:17:57;99900.63;;;7.68;100.00
68994;BME280;56054;50.968;5.816;2023-01-13T08:21:10;99892.53;;;7.77;100.00
68994;BME280;56054;50.968;5.816;2023-01-13T08:24:17;99896.81;;;7.77;100.00
68994;BME280;56054;50.968;5.816;2023-01-13T08:27:24;99899.97;;;7.86;100.00
68994;BME280;56054;50.968;5.816;2023-01-13T08:30:31;99912.38;;;7.91;100.00
68994;BME280;56054;50.968;5.816;2023-01-13T08:33:39;99920.22;;;7.93;100.00
68994;BME280;56054;50.968;5.816;2023-01-13T08:36:48;99915.63;;;8.02;100.00
68994;BME280;56054;50.968;5.816;2023-01-13T08:39:56;99917.94;;;8.12;99.85
68994;BME280;56054;50.968;5.816;2023-01-13T08:43:03;99917.50;;;8.05;100.00
68994;BME280;56054;50.968;5.816;2023-01-13T08:46:10;99914.25;;;8.09;99.66
68994;BME280;56054;50.968;5.816;2023-01-13T08:49:17;99926.31;;;8.08;100.00
68994;BME280;56054;50.968;5.816;2023-01-13T08:52:25;99930.94;;;8.14;99.58
68994;BME280;56054;50.968;5.816;2023-01-13T08:55:31;99924.56;;;8.22;98.75
68994;BME280;56054;50.968;5.816;2023-01-13T08:58:38;99934.97;;;8.24;99.25
68994;BME280;56054;50.968;5.816;2023-01-13T09:01:46;99944.84;;;8.29;98.20
68994;BME280;56054;50.968;5.816;2023-01-13T09:04:53;99948.13;;;8.27;98.69
68994;BME280;56054;50.968;5.816;2023-01-13T09:08:00;99949.63;;;8.38;97.93
68994;BME280;56054;50.968;5.816;2023-01-13T09:11:17;99938.09;;;8.46;98.03
68994;BME280;56054;50.968;5.816;2023-01-13T09:14:29;99941.56;;;8.47;97.89
68994;BME280;56054;50.968;5.816;2023-01-13T09:17:37;99945.66;;;8.43;97.46
68994;BME280;56054;50.968;5.816;2023-01-13T09:20:46;99938.88;;;8.45;97.52
68994;BME280;56054;50.968;5.816;2023-01-13T09:23:53;99925.16;;;8.46;96.63
68994;BME280;56054;50.968;5.816;2023-01-13T09:27:01;99932.47;;;8.53;98.00
68994;BME280;56054;50.968;5.816;2023-01-13T09:30:09;99940.41;;;8.56;97.86
68994;BME280;56054;50.968;5.816;2023-01-13T09:33:16;99943.16;;;8.60;96.21
68994;BME280;56054;50.968;5.816;2023-01-13T09:36:23;99945.16;;;8.64;95.83
68994;BME280;56054;50.968;5.816;2023-01-13T09:39:34;99931.38;;;8.65;96.84
68994;BME280;56054;50.968;5.816;2023-01-13T09:42:58;99939.97;;;8.64;95.37
68994;BME280;56054;50.968;5.816;2023-01-13T09:46:16;99942.56;;;8.64;95.69
68994;BME280;56054;50.968;5.816;2023-01-13T09:49:38;99952.00;;;8.63;94.64
68994;BME280;56054;50.968;5.816;2023-01-13T09:52:46;99941.13;;;8.69;94.55
68994;BME280;56054;50.968;5.816;2023-01-13T09:55:53;99923.72;;;8.66;93.65
68994;BME280;56054;50.968;5.816;2023-01-13T09:59:01;99943.72;;;8.69;93.10
68994;BME280;56054;50.968;5.816;2023-01-13T10:08:44;99941.19;;;8.85;93.29
68994;BME280;56054;50.968;5.816;2023-01-13T10:11:54;99952.78;;;8.92;94.20
68994;BME280;56054;50.968;5.816;2023-01-13T10:15:04;99958.84;;;8.92;91.79
68994;BME280;56054;50.968;5.816;2023-01-13T10:18:24;99946.25;;;8.98;92.18
68994;BME280;56054;50.968;5.816;2023-01-13T10:25:07;99959.09;;;9.12;90.15
68994;BME280;56054;50.968;5.816;2023-01-13T10:28:21;99965.56;;;9.04;90.60
68994;BME280;56054;50.968;5.816;2023-01-13T10:31:28;99964.94;;;9.08;90.91
68994;BME280;56054;50.968;5.816;2023-01-13T10:34:47;99979.31;;;9.03;88.74
68994;BME280;56054;50.968;5.816;2023-01-13T10:37:56;99964.94;;;9.08;89.56
68994;BME280;56054;50.968;5.816;2023-01-13T10:41:16;99965.72;;;9.07;88.64
68994;BME280;56054;50.968;5.816;2023-01-13T10:44:23;99972.88;;;9.11;89.30
68994;BME280;56054;50.968;5.816;2023-01-13T10:47:35;99966.63;;;9.07;89.42
68994;BME280;56054;50.968;5.816;2023-01-13T10:50:45;99970.44;;;9.14;87.92
68994;BME280;56054;50.968;5.816;2023-01-13T10:54:13;99980.28;;;9.19;88.60
68994;BME280;56054;50.968;5.816;2023-01-13T10:57:26;99982.06;;;9.20;86.36
68994;BME280;56054;50.968;5.816;2023-01-13T11:00:33;99983.09;;;9.24;88.65
68994;BME280;56054;50.968;5.816;2023-01-13T11:03:47;99978.91;;;9.26;88.92
68994;BME280;56054;50.968;5.816;2023-01-13T11:06:55;99992.25;;;9.17;86.73
68994;BME280;56054;50.968;5.816;2023-01-13T11:10:22;99987.13;;;9.19;87.77
68994;BME280;56054;50.968;5.816;2023-01-13T11:13:36;99986.88;;;9.14;87.09
68994;BME280;56054;50.968;5.816;2023-01-13T11:16:51;99993.03;;;9.16;88.20
68994;BME280;56054;50.968;5.816;2023-01-13T11:20:22;99987.78;;;9.15;88.48
68994;BME280;56054;50.968;5.816;2023-01-13T11:23:46;99988.50;;;9.12;89.30
68994;BME280;56054;50.968;5.816;2023-01-13T11:27:07;99985.94;;;9.12;88.73
68994;BME280;56054;50.968;5.816;2023-01-13T11:30:41;100006.22;;;9.19;87.64
68994;BME280;56054;50.968;5.816;2023-01-13T11:34:02;100001.81;;;9.18;88.61
68994;BME280;56054;50.968;5.816;2023-01-13T11:37:35;100004.13;;;9.14;88.78
68994;BME280;56054;50.968;5.816;2023-01-13T11:40:45;99998.53;;;9.06;89.93
68994;BME280;56054;50.968;5.816;2023-01-13T11:47:01;99997.47;;;9.03;90.99
68994;BME280;56054;50.968;5.816;2023-01-13T11:53:44;100014.69;;;8.72;98.79
68994;BME280;56054;50.968;5.816;2023-01-13T12:01:02;100021.53;;;8.42;100.00
68994;BME280;56054;50.968;5.816;2023-01-13T12:04:40;100048.88;;;8.39;100.00
68994;BME280;56054;50.968;5.816;2023-01-13T12:15:17;100042.25;;;8.29;100.00
68994;BME280;56054;50.968;5.816;2023-01-13T12:22:11;100049.91;;;8.41;100.00
68994;BME280;56054;50.968;5.816;2023-01-13T12:25:31;100054.78;;;8.36;100.00
68994;BME280;56054;50.968;5.816;2023-01-13T12:31:59;100063.19;;;8.32;100.00
68994;BME280;56054;50.968;5.816;2023-01-13T12:35:38;100062.00;;;8.27;100.00
68994;BME280;56054;50.968;5.816;2023-01-13T12:38:58;100087.53;;;8.35;100.00
68994;BME280;56054;50.968;5.816;2023-01-13T12:49:41;100089.00;;;8.17;100.00
68994;BME280;56054;50.968;5.816;2023-01-13T12:52:59;100083.72;;;8.15;100.00
68994;BME280;56054;50.968;5.816;2023-01-13T13:00:55;100106.22;;;8.17;100.00
68994;BME280;56054;50.968;5.816;2023-01-13T13:04:16;100110.53;;;8.03;100.00
68994;BME280;56054;50.968;5.816;2023-01-13T13:07:31;100121.97;;;8.06;100.00
68994;BME280;56054;50.968;5.816;2023-01-13T13:10:57;100103.06;;;8.07;100.00
68994;BME280;56054;50.968;5.816;2023-01-13T13:14:12;100116.31;;;7.99;100.00
68994;BME280;56054;50.968;5.816;2023-01-13T13:20:57;100130.59;;;8.07;100.00
68994;BME280;56054;50.968;5.816;2023-01-13T13:24:09;100130.31;;;8.15;100.00
68994;BME280;56054;50.968;5.816;2023-01-13T13:27:18;100129.31;;;8.13;100.00
68994;BME280;56054;50.968;5.816;2023-01-13T13:30:36;100130.81;;;8.10;100.00
68994;BME280;56054;50.968;5.816;2023-01-13T13:37:54;100135.47;;;8.15;100.00
68994;BME280;56054;50.968;5.816;2023-01-13T13:41:20;100154.47;;;8.29;100.00
68994;BME280;56054;50.968;5.816;2023-01-13T13:44:35;100150.97;;;8.29;100.00
68994;BME280;56054;50.968;5.816;2023-01-13T13:47:43;100167.59;;;8.32;100.00
68994;BME280;56054;50.968;5.816;2023-01-13T13:50:54;100140.13;;;8.34;100.00
68994;BME280;56054;50.968;5.816;2023-01-13T13:54:02;100183.75;;;8.42;100.00
68994;BME280;56054;50.968;5.816;2023-01-13T13:57:31;100176.25;;;8.33;100.00
68994;BME280;56054;50.968;5.816;2023-01-13T14:00:40;100179.25;;;8.26;100.00
68994;BME280;56054;50.968;5.816;2023-01-13T14:04:10;100186.72;;;8.21;100.00
68994;BME280;56054;50.968;5.816;2023-01-13T14:07:20;100205.72;;;8.22;100.00
68994;BME280;56054;50.968;5.816;2023-01-13T14:10:35;100199.66;;;8.21;100.00
68994;BME280;56054;50.968;5.816;2023-01-13T14:13:42;100210.31;;;8.26;100.00
68994;BME280;56054;50.968;5.816;2023-01-13T14:16:50;100202.97;;;8.32;100.00
68994;BME280;56054;50.968;5.816;2023-01-13T14:20:05;100215.91;;;8.32;100.00
68994;BME280;56054;50.968;5.816;2023-01-13T14:23:26;100228.22;;;8.36;100.00
68994;BME280;56054;50.968;5.816;2023-01-13T14:26:34;100235.41;;;8.40;100.00
68994;BME280;56054;50.968;5.816;2023-01-13T14:29:43;100238.78;;;8.39;100.00
68994;BME280;56054;50.968;5.816;2023-01-13T14:32:51;100237.50;;;8.32;100.00
68994;BME280;56054;50.968;5.816;2023-01-13T14:36:21;100235.59;;;8.17;100.00
68994;BME280;56054;50.968;5.816;2023-01-13T14:39:36;100241.00;;;8.20;100.00
68994;BME280;56054;50.968;5.816;2023-01-13T14:42:43;100247.84;;;8.19;100.00
68994;BME280;56054;50.968;5.816;2023-01-13T14:45:56;100262.09;;;8.12;100.00
68994;BME280;56054;50.968;5.816;2023-01-13T14:49:03;100257.00;;;8.14;100.00
68994;BME280;56054;50.968;5.816;2023-01-13T14:52:16;100265.06;;;8.05;100.00
68994;BME280;56054;50.968;5.816;2023-01-13T14:55:37;100263.59;;;8.22;100.00
68994;BME280;56054;50.968;5.816;2023-01-13T14:58:47;100276.03;;;8.14;100.00
68994;BME280;56054;50.968;5.816;2023-01-13T15:01:55;100274.13;;;8.12;100.00
68994;BME280;56054;50.968;5.816;2023-01-13T15:08:34;100293.94;;;8.11;100.00
68994;BME280;56054;50.968;5.816;2023-01-13T15:11:43;100297.41;;;8.12;100.00
68994;BME280;56054;50.968;5.816;2023-01-13T15:14:49;100303.56;;;8.14;100.00
68994;BME280;56054;50.968;5.816;2023-01-13T15:17:58;100301.91;;;8.14;100.00
68994;BME280;56054;50.968;5.816;2023-01-13T15:21:09;100305.47;;;8.17;100.00
68994;BME280;56054;50.968;5.816;2023-01-13T15:24:16;100312.34;;;8.16;100.00
68994;BME280;56054;50.968;5.816;2023-01-13T15:27:32;100304.69;;;8.18;100.00
68994;BME280;56054;50.968;5.816;2023-01-13T15:30:39;100309.16;;;8.20;100.00
68994;BME280;56054;50.968;5.816;2023-01-13T15:34:12;100327.59;;;8.25;100.00
68994;BME280;56054;50.968;5.816;2023-01-13T15:37:19;100334.66;;;8.27;100.00
68994;BME280;56054;50.968;5.816;2023-01-13T15:40:31;100343.50;;;8.31;100.00
68994;BME280;56054;50.968;5.816;2023-01-13T15:43:39;100336.63;;;8.31;100.00
68994;BME280;56054;50.968;5.816;2023-01-13T15:46:47;100345.84;;;8.40;100.00
68994;BME280;56054;50.968;5.816;2023-01-13T15:49:54;100349.34;;;8.40;100.00
68994;BME280;56054;50.968;5.816;2023-01-13T15:53:02;100361.47;;;8.41;100.00
68994;BME280;56054;50.968;5.816;2023-01-13T15:56:21;100363.28;;;8.42;100.00
68994;BME280;56054;50.968;5.816;2023-01-13T15:59:29;100366.88;;;8.44;100.00
68994;BME280;56054;50.968;5.816;2023-01-13T16:02:35;100360.09;;;8.46;100.00
68994;BME280;56054;50.968;5.816;2023-01-13T16:05:43;100378.31;;;8.48;100.00
68994;BME280;56054;50.968;5.816;2023-01-13T16:08:50;100376.41;;;8.45;100.00
68994;BME280;56054;50.968;5.816;2023-01-13T16:11:57;100379.19;;;8.48;100.00
68994;BME280;56054;50.968;5.816;2023-01-13T16:15:05;100389.38;;;8.45;100.00
68994;BME280;56054;50.968;5.816;2023-01-13T16:18:18;100391.38;;;8.49;100.00
68994;BME280;56054;50.968;5.816;2023-01-13T16:21:25;100384.59;;;8.51;98.64
68994;BME280;56054;50.968;5.816;2023-01-13T16:24:32;100393.25;;;8.52;98.89
68994;BME280;56054;50.968;5.816;2023-01-13T16:27:40;100397.63;;;8.53;97.76
68994;BME280;56054;50.968;5.816;2023-01-13T16:31:18;100401.31;;;8.70;93.60
68994;BME280;56054;50.968;5.816;2023-01-13T16:34:27;100409.50;;;8.63;95.39
68994;BME280;56054;50.968;5.816;2023-01-13T16:37:37;100409.50;;;8.63;95.43
68994;BME280;56054;50.968;5.816;2023-01-13T16:40:45;100423.34;;;8.63;96.02
68994;BME280;56054;50.968;5.816;2023-01-13T16:43:53;100424.16;;;8.75;96.60
68994;BME280;56054;50.968;5.816;2023-01-13T16:47:00;100434.63;;;8.64;95.57
68994;BME280;56054;50.968;5.816;2023-01-13T16:50:19;100449.22;;;8.63;96.52
68994;BME280;56054;50.968;5.816;2023-01-13T16:53:26;100457.00;;;8.63;95.75
68994;BME280;56054;50.968;5.816;2023-01-13T16:56:35;100458.69;;;8.63;95.00
68994;BME280;56054;50.968;5.816;2023-01-13T17:06:50;100462.88;;;8.61;93.71
68994;BME280;56054;50.968;5.816;2023-01-13T17:13:12;100480.22;;;8.75;90.02
68994;BME280;56054;50.968;5.816;2023-01-13T17:16:21;100488.38;;;8.68;90.91
68994;BME280;56054;50.968;5.816;2023-01-13T17:19:33;100490.78;;;8.65;91.85
68994;BME280;56054;50.968;5.816;2023-01-13T17:22:40;100489.41;;;8.70;90.21
68994;BME280;56054;50.968;5.816;2023-01-13T17:25:57;100498.97;;;8.71;89.99
68994;BME280;56054;50.968;5.816;2023-01-13T17:29:20;100512.13;;;8.74;89.55
68994;BME280;56054;50.968;5.816;2023-01-13T17:32:28;100518.91;;;8.72;90.14
68994;BME280;56054;50.968;5.816;2023-01-13T17:35:37;100524.88;;;8.71;89.78
68994;BME280;56054;50.968;5.816;2023-01-13T17:38:45;100525.84;;;8.73;89.12
68994;BME280;56054;50.968;5.816;2023-01-13T17:41:52;100531.72;;;8.70;90.31
68994;BME280;56054;50.968;5.816;2023-01-13T17:44:59;100532.66;;;8.71;89.68
68994;BME280;56054;50.968;5.816;2023-01-13T17:48:06;100524.75;;;8.69;90.98
68994;BME280;56054;50.968;5.816;2023-01-13T17:51:15;100522.19;;;8.69;90.37
68994;BME280;56054;50.968;5.816;2023-01-13T17:54:23;100514.59;;;8.72;89.40
68994;BME280;56054;50.968;5.816;2023-01-13T17:57:33;100521.28;;;8.69;90.64
68994;BME280;56054;50.968;5.816;2023-01-13T18:00:42;100524.47;;;8.65;91.25
68994;BME280;56054;50.968;5.816;2023-01-13T18:03:49;100533.13;;;8.65;90.86
68994;BME280;56054;50.968;5.816;2023-01-13T18:06:56;100548.66;;;8.65;91.73
68994;BME280;56054;50.968;5.816;2023-01-13T18:10:04;100545.50;;;8.69;90.39
68994;BME280;56054;50.968;5.816;2023-01-13T18:13:12;100547.75;;;8.65;91.31
68994;BME280;56054;50.968;5.816;2023-01-13T18:16:22;100557.34;;;8.66;92.12
68994;BME280;56054;50.968;5.816;2023-01-13T18:19:32;100568.50;;;8.65;92.05
68994;BME280;56054;50.968;5.816;2023-01-13T18:22:41;100564.94;;;8.76;92.69